Time;durP1;ratioP1;P1;durP2;ratioP2;P2;SDS_P1;SDS_P2;PMS_P1;PMS_P2;Temp;Humidity;BMP_temperature;BMP_pressure;BME280_temperature;BME280_humidity;BME280_pressure;Samples;Min_cycle;Max_cycle;Signal;HPM_P1;HPM_P2
2024/03/04 00:00:16;;;;;;;116.00;56.43;;;;;;;6.59;100.00;100289.16;5028958;28;20300;-74
2024/03/04 00:02:42;;;;;;;112.10;57.17;;;;;;;6.63;100.00;100285.25;5024090;28;20508;-75
2024/03/04 00:05:08;;;;;;;;;;;;;;;6.44;100.00;100280.88;5020445;28;20132;-74
2024/03/04 00:07:33;;;;;;;130.95;59.58;;;;;;;6.24;100.00;100285.41;5026558;28;20099;-76
2024/03/04 00:09:58;;;;;;;119.70;57.53;;;;;;;6.45;100.00;100297.63;5022429;28;20044;-72
2024/03/04 00:12:24;;;;;;;116.10;58.00;;;;;;;6.56;100.00;100302.75;5028721;28;20650;-73
2024/03/04 00:14:50;;;;;;;125.03;62.00;;;;;;;6.44;100.00;100307.41;5010455;28;20036;-72
2024/03/04 00:17:16;;;;;;;132.37;59.60;;;;;;;6.48;100.00;100300.78;5028173;28;20411;-73
2024/03/04 00:19:42;;;;;;;114.70;59.08;;;;;;;6.50;100.00;100313.91;5029209;28;20874;-76
2024/03/04 00:22:07;;;;;;;123.47;60.00;;;;;;;6.55;100.00;100316.97;5026966;28;20396;-73
2024/03/04 00:24:32;;;;;;;113.15;59.25;;;;;;;6.61;100.00;100319.03;5010338;28;20041;-73
2024/03/04 00:26:59;;;;;;;120.20;60.23;;;;;;;6.62;100.00;100309.25;5026319;28;20391;-73
2024/03/04 00:29:38;;;;;;;113.95;56.53;;;;;;;6.64;100.00;100302.00;5067917;27;20374;-73
2024/03/04 00:32:03;;;;;;;118.93;58.13;;;;;;;6.58;100.00;100290.16;5077831;28;20025;-76
2024/03/04 00:34:29;;;;;;;127.88;60.67;;;;;;;6.60;100.00;100296.13;5056564;28;20386;-75
2024/03/04 00:36:54;;;;;;;117.47;55.07;;;;;;;6.61;100.00;100295.16;5069200;28;20064;-75
2024/03/04 00:39:21;;;;;;;117.03;59.20;;;;;;;6.56;100.00;100297.44;5061874;28;20275;-76
2024/03/04 00:41:47;;;;;;;119.60;60.40;;;;;;;6.56;100.00;100289.47;5071080;28;20035;-74
2024/03/04 00:44:13;;;;;;;115.95;54.85;;;;;;;6.52;100.00;100285.44;5070593;28;20020;-75
2024/03/04 00:46:45;;;;;;;116.35;59.17;;;;;;;6.49;100.00;100275.13;5069183;22;20098;-74
2024/03/04 00:49:10;;;;;;;113.45;54.00;;;;;;;6.30;100.00;100260.97;5040941;28;20029;-72
2024/03/04 00:51:36;;;;;;;110.03;56.03;;;;;;;6.41;100.00;100280.31;5055546;28;20017;-74
2024/03/04 00:54:02;;;;;;;106.47;54.08;;;;;;;6.46;100.00;100288.66;5044427;28;20068;-76
2024/03/04 00:56:27;;;;;;;116.32;58.58;;;;;;;6.36;100.00;100290.53;5052633;28;20110;-75
2024/03/04 00:58:53;;;;;;;122.17;57.20;;;;;;;6.38;100.00;100285.94;5057810;28;20037;-75
2024/03/04 01:01:18;;;;;;;114.38;55.90;;;;;;;6.17;100.00;100273.72;5049173;28;20040;-74
2024/03/04 01:03:44;;;;;;;116.38;54.38;;;;;;;6.31;100.00;100283.03;5056687;28;20029;-76
2024/03/04 01:06:09;;;;;;;110.50;55.00;;;;;;;6.29;100.00;100287.63;5081673;28;20032;-74
2024/03/04 01:08:34;;;;;;;120.55;56.47;;;;;;;6.34;100.00;100291.53;5071975;28;20137;-74
2024/03/04 01:11:00;;;;;;;118.17;58.50;;;;;;;6.39;100.00;100295.53;5055942;28;20830;-75
2024/03/04 01:13:25;;;;;;;120.93;57.22;;;;;;;6.21;100.00;100304.28;5061845;28;20036;-73
2024/03/04 01:15:51;;;;;;;113.57;57.70;;;;;;;6.37;100.00;100302.81;5058365;28;20029;-73
2024/03/04 01:18:20;;;;;;;108.77;57.23;;;;;;;6.45;100.00;100311.72;5072260;28;20029;-75
2024/03/04 01:20:45;;;;;;;110.05;55.40;;;;;;;6.34;100.00;100293.31;5071189;28;20895;-73
2024/03/04 01:23:11;;;;;;;111.03;56.85;;;;;;;6.48;100.00;100300.78;5057483;28;20112;-73
2024/03/04 01:25:37;;;;;;;109.03;53.38;;;;;;;6.52;100.00;100296.03;5074669;28;20040;-74
2024/03/04 01:28:03;;;;;;;100.25;50.40;;;;;;;6.31;100.00;100283.03;5061022;28;20100;-74
2024/03/04 01:30:28;;;;;;;114.85;56.10;;;;;;;6.27;100.00;100301.03;5059520;28;20114;-75
2024/03/04 01:32:56;;;;;;;105.07;53.53;;;;;;;6.38;100.00;100305.31;5065339;28;20104;-74
2024/03/04 01:35:23;;;;;;;103.38;53.40;;;;;;;6.45;100.00;100305.56;5060034;28;20119;-75
2024/03/04 01:37:48;;;;;;;120.50;58.28;;;;;;;6.44;100.00;100302.09;5064519;28;20435;-75
2024/03/04 01:40:14;;;;;;;105.45;50.58;;;;;;;6.40;100.00;100305.19;5061257;28;20035;-76
2024/03/04 01:42:42;;;;;;;105.05;52.35;;;;;;;6.42;100.00;100301.41;5052209;28;20076;-73
2024/03/04 01:45:15;;;;;;;109.85;54.40;;;;;;;6.45;100.00;100292.31;5053806;28;20029;-75
2024/03/04 01:47:42;;;;;;;114.85;58.50;;;;;;;6.42;100.00;100280.19;5051264;28;20548;-75
2024/03/04 01:50:09;;;;;;;115.50;55.95;;;;;;;6.44;100.00;100287.97;5045626;28;20021;-75
2024/03/04 01:52:35;;;;;;;105.38;55.15;;;;;;;6.46;100.00;100288.66;5050415;28;20109;-75
2024/03/04 01:55:01;;;;;;;109.65;55.95;;;;;;;6.31;100.00;100285.69;5037238;28;20021;-74
2024/03/04 01:57:27;;;;;;;103.07;53.30;;;;;;;6.29;100.00;100293.75;5029005;28;20047;-73
2024/03/04 01:59:53;;;;;;;108.13;54.20;;;;;;;6.33;100.00;100292.50;5050529;28;20029;-75
2024/03/04 02:02:19;;;;;;;;;;;;;;;6.41;100.00;100304.19;5050321;28;20025;-75
2024/03/04 02:04:45;;;;;;;114.80;53.55;;;;;;;6.45;100.00;100292.31;5067585;28;20359;-75
2024/03/04 02:07:13;;;;;;;106.22;51.42;;;;;;;6.44;100.00;100287.97;5051177;28;20116;-75
2024/03/04 02:09:39;;;;;;;114.85;52.58;;;;;;;6.41;100.00;100278.50;5064651;28;20116;-75
2024/03/04 02:12:05;;;;;;;103.88;51.85;;;;;;;6.41;100.00;100275.03;5047040;28;20458;-75
2024/03/04 02:14:31;;;;;;;117.40;56.70;;;;;;;6.41;100.00;100277.66;5035481;28;20029;-74
2024/03/04 02:16:56;;;;;;;116.82;54.72;;;;;;;6.33;100.00;100275.75;5042414;28;20122;-74
2024/03/04 02:19:22;;;;;;;101.70;52.13;;;;;;;6.38;100.00;100275.31;5033249;28;20492;-75
2024/03/04 02:21:57;;;;;;;118.90;57.35;;;;;;;6.43;100.00;100275.72;5036689;28;21014;-75
2024/03/04 02:24:23;;;;;;;107.70;54.60;;;;;;;6.44;100.00;100272.06;5047665;28;20033;-74
2024/03/04 02:26:50;;;;;;;104.63;53.78;;;;;;;6.40;100.00;100273.38;5044247;28;20024;-75
2024/03/04 02:29:16;;;;;;;96.22;50.30;;;;;;;6.41;100.00;100267.06;5059429;28;20025;-73
2024/03/04 02:31:41;;;;;;;103.80;53.08;;;;;;;6.43;100.00;100267.75;5037700;28;20016;-75
2024/03/04 02:34:08;;;;;;;108.93;53.38;;;;;;;6.47;100.00;100274.44;5045612;28;20039;-75
2024/03/04 02:36:33;;;;;;;103.50;50.20;;;;;;;6.29;100.00;100250.50;5039387;28;20038;-76
2024/03/04 02:39:03;;;;;;;104.72;53.17;;;;;;;6.32;100.00;100266.97;5037267;28;20027;-75
2024/03/04 02:41:29;;;;;;;99.40;49.92;;;;;;;6.38;100.00;100275.31;5029671;28;20553;-76
2024/03/04 02:43:54;;;;;;;100.07;51.53;;;;;;;6.36;100.00;100274.63;5029467;28;20017;-74
2024/03/04 02:46:21;;;;;;;98.22;52.72;;;;;;;6.32;100.00;100271.41;5058145;28;20816;-76
2024/03/04 02:48:51;;;;;;;99.53;51.53;;;;;;;6.41;100.00;100285.63;5058554;28;20032;-76
2024/03/04 02:51:17;;;;;;;97.43;50.42;;;;;;;6.44;100.00;100277.38;5053456;28;20036;-75
2024/03/04 02:53:42;;;;;;;99.25;51.22;;;;;;;6.41;100.00;100277.66;5051632;28;20036;-75
2024/03/04 02:56:07;;;;;;;101.80;51.50;;;;;;;6.34;100.00;100275.63;5054039;28;20523;-76
2024/03/04 02:58:33;;;;;;;90.88;49.70;;;;;;;6.27;100.00;100268.38;5062948;28;20033;-76
2024/03/04 03:00:59;;;;;;;99.25;50.65;;;;;;;6.36;100.00;100282.59;5054226;28;20028;-75
2024/03/04 03:03:24;;;;;;;97.15;47.53;;;;;;;6.37;100.00;100271.84;5054037;28;20021;-76
2024/03/04 03:05:49;;;;;;;94.13;49.63;;;;;;;6.36;100.00;100274.63;5031116;28;20102;-75
2024/03/04 03:08:15;;;;;;;94.97;47.00;;;;;;;6.36;100.00;100286.06;5042156;28;20298;-75
2024/03/04 03:10:40;;;;;;;95.50;51.20;;;;;;;6.34;100.00;100283.59;5051385;28;20082;-73
2024/03/04 03:13:07;;;;;;;100.30;49.23;;;;;;;6.37;100.00;100292.19;5050875;28;20036;-73
2024/03/04 03:15:33;;;;;;;92.88;47.35;;;;;;;6.38;100.00;100284.09;5056115;28;20286;-75
2024/03/04 03:18:02;;;;;;;92.85;46.67;;;;;;;6.41;100.00;100288.28;5041009;28;20028;-75
2024/03/04 03:20:28;;;;;;;88.68;46.85;;;;;;;6.32;100.00;100282.88;5041812;28;20028;-75
2024/03/04 03:22:53;;;;;;;98.53;46.63;;;;;;;6.41;100.00;100290.94;5053678;28;20471;-75
2024/03/04 03:25:18;;;;;;;93.43;46.77;;;;;;;6.40;100.00;100297.22;5056123;28;20069;-76
2024/03/04 03:27:44;;;;;;;85.03;45.07;;;;;;;6.32;100.00;100296.16;5025199;28;20278;-75
2024/03/04 03:30:10;;;;;;;102.35;47.60;;;;;;;6.32;100.00;100295.28;5047592;28;20798;-75
2024/03/04 03:32:37;;;;;;;91.57;44.95;;;;;;;6.22;100.00;100300.63;5057726;28;20564;-73
2024/03/04 03:35:04;;;;;;;99.15;49.33;;;;;;;6.29;100.00;100309.66;5044514;28;20391;-75
2024/03/04 03:37:29;;;;;;;102.13;51.22;;;;;;;6.30;100.00;100319.31;5050119;28;20395;-75
2024/03/04 03:39:55;;;;;;;97.03;47.50;;;;;;;5.97;100.00;100295.97;5056164;28;20025;-75
2024/03/04 03:42:21;;;;;;;92.23;46.10;;;;;;;5.92;100.00;100313.13;5049077;28;20028;-73
2024/03/04 03:44:46;;;;;;;95.00;47.63;;;;;;;5.88;100.00;100324.97;5052554;28;20089;-75
2024/03/04 03:47:11;;;;;;;95.23;46.63;;;;;;;5.83;100.00;100337.81;5071243;28;20029;-75
2024/03/04 03:49:37;;;;;;;96.93;50.95;;;;;;;5.80;100.00;100337.25;5065052;28;20032;-75
2024/03/04 03:52:03;;;;;;;95.87;47.57;;;;;;;5.82;100.00;100354.69;5048585;28;20384;-75
2024/03/04 03:54:28;;;;;;;104.13;50.83;;;;;;;5.49;100.00;100351.47;5054522;28;20407;-74
2024/03/04 03:56:53;;;;;;;90.87;49.60;;;;;;;5.58;100.00;100392.19;5044450;28;20025;-74
2024/03/04 03:59:19;;;;;;;97.03;50.63;;;;;;;5.65;100.00;100403.91;5039480;28;20034;-75
2024/03/04 04:01:44;;;;;;;109.60;48.30;;;;;;;5.68;100.00;100408.09;5046746;28;20373;-75
2024/03/04 04:04:09;;;;;;;101.77;48.13;;;;;;;5.71;100.00;100413.94;5058895;28;20317;-74
2024/03/04 04:06:35;;;;;;;96.03;50.53;;;;;;;5.74;100.00;100418.13;5039583;28;20099;-73
2024/03/04 04:09:00;;;;;;;96.63;47.20;;;;;;;5.79;100.00;100429.13;5049501;28;20059;-73
2024/03/04 04:11:26;;;;;;;101.18;50.15;;;;;;;5.86;100.00;100430.25;5044712;28;20393;-75
2024/03/04 04:13:51;;;;;;;102.60;50.47;;;;;;;5.68;100.00;100411.56;5040844;28;20020;-75
2024/03/04 04:16:17;;;;;;;103.25;49.25;;;;;;;5.76;100.00;100425.91;5023015;28;20037;-75
2024/03/04 04:18:42;;;;;;;104.97;51.25;;;;;;;5.72;100.00;100430.69;5045436;28;20021;-74
2024/03/04 04:21:08;;;;;;;91.57;49.65;;;;;;;5.75;100.00;100429.56;5038139;28;20501;-74
2024/03/04 04:23:34;;;;;;;100.50;50.17;;;;;;;5.78;100.00;100423.97;5046695;28;20033;-74
2024/03/04 04:25:59;;;;;;;98.38;50.15;;;;;;;5.80;100.00;100425.50;5038208;28;20756;-75
2024/03/04 04:28:25;;;;;;;90.90;49.47;;;;;;;5.82;100.00;100423.56;5032864;28;20037;-75
2024/03/04 04:30:51;;;;;;;104.00;49.42;;;;;;;5.80;100.00;100416.72;5044152;28;20052;-72
2024/03/04 04:33:17;;;;;;;109.28;51.60;;;;;;;5.77;100.00;100415.19;5042178;28;20037;-75
2024/03/04 04:35:43;;;;;;;103.03;51.58;;;;;;;5.79;100.00;100415.91;5049106;28;20129;-75
2024/03/04 04:38:08;;;;;;;103.78;50.30;;;;;;;5.83;100.00;100422.59;5053425;28;20490;-75
2024/03/04 04:40:33;;;;;;;107.17;52.90;;;;;;;5.74;100.00;100412.84;5047442;28;20037;-75
2024/03/04 04:42:59;;;;;;;106.72;51.67;;;;;;;5.80;100.00;100419.38;5056806;28;20316;-75
2024/03/04 04:45:26;;;;;;;108.65;54.25;;;;;;;5.81;100.00;100419.25;5056538;28;20028;-74
2024/03/04 04:47:54;;;;;;;101.85;50.45;;;;;;;5.79;100.00;100413.25;5032157;28;20060;-75
2024/03/04 04:50:19;;;;;;;104.03;49.78;;;;;;;5.77;100.00;100417.84;5050766;28;20039;-75
2024/03/04 04:52:45;;;;;;;105.82;53.47;;;;;;;5.74;100.00;100418.13;5049830;28;20047;-73
2024/03/04 04:55:10;;;;;;;104.30;51.90;;;;;;;5.72;100.00;100415.63;5042023;28;20029;-73
2024/03/04 04:57:36;;;;;;;104.80;54.10;;;;;;;5.73;100.00;100429.69;5040111;28;20267;-75
2024/03/04 05:00:02;;;;;;;103.78;51.05;;;;;;;5.74;100.00;100438.50;5051904;28;20048;-75
2024/03/04 05:02:28;;;;;;;109.70;54.08;;;;;;;5.72;100.00;100426.22;5051542;28;20040;-75
2024/03/04 05:04:53;;;;;;;123.38;57.55;;;;;;;5.71;100.00;100428.97;5062064;28;20029;-75
2024/03/04 05:07:19;;;;;;;111.93;54.30;;;;;;;5.74;100.00;100434.03;5060474;28;20027;-74
2024/03/04 05:09:44;;;;;;;110.17;54.43;;;;;;;5.75;100.00;100429.56;5057933;28;21248;-75
2024/03/04 05:12:09;;;;;;;102.43;50.93;;;;;;;5.58;100.00;100434.56;5056845;28;20032;-74
2024/03/04 05:14:36;;;;;;;115.73;55.37;;;;;;;5.61;100.00;100452.00;5045027;28;20041;-73
2024/03/04 05:17:02;;;;;;;109.50;53.17;;;;;;;5.55;100.00;100457.81;5054156;28;20696;-75
2024/03/04 05:19:34;;;;;;;101.90;50.88;;;;;;;5.58;100.00;100462.88;5053652;28;20112;-75
2024/03/04 05:22:07;;;;;;;107.28;52.95;;;;;;;5.55;100.00;100471.06;5044784;28;20050;-74
2024/03/04 05:24:32;;;;;;;108.00;54.80;;;;;;;5.59;100.00;100489.19;5034819;28;20150;-75
2024/03/04 05:26:57;;;;;;;115.15;54.25;;;;;;;5.60;100.00;100475.00;5049609;28;20114;-74
2024/03/04 05:29:23;;;;;;;108.83;53.67;;;;;;;5.65;100.00;100485.19;5056518;28;20106;-74
2024/03/04 05:31:53;;;;;;;112.93;55.53;;;;;;;5.68;100.00;100498.13;5048413;28;20274;-73
2024/03/04 05:34:18;;;;;;;119.72;54.55;;;;;;;5.69;100.00;100492.72;5067058;28;20081;-74
2024/03/04 05:36:44;;;;;;;101.32;51.88;;;;;;;5.68;100.00;100490.19;5051136;28;20414;-74
2024/03/04 05:39:10;;;;;;;112.70;53.78;;;;;;;5.70;100.00;100485.59;5059608;28;20044;-74
2024/03/04 05:41:37;;;;;;;111.13;53.38;;;;;;;5.70;100.00;100490.91;5066194;28;20052;-76
2024/03/04 05:44:03;;;;;;;108.88;53.38;;;;;;;5.68;100.00;100492.84;5068073;28;20064;-73
2024/03/04 05:46:30;;;;;;;98.95;50.05;;;;;;;5.93;100.00;100513.50;5067615;28;20860;-75
2024/03/04 05:48:55;;;;;;;99.07;49.22;;;;;;;6.08;100.00;100505.19;5066587;28;20039;-77
2024/03/04 05:51:21;;;;;;;111.85;54.05;;;;;;;6.08;100.00;100481.31;5058945;28;20029;-74
2024/03/04 05:53:46;;;;;;;109.65;55.20;;;;;;;6.17;100.00;100477.84;5066673;28;20479;-74
2024/03/04 05:56:14;;;;;;;101.77;51.07;;;;;;;6.19;100.00;100481.19;5066510;28;20025;-75
2024/03/04 05:58:40;;;;;;;108.20;52.97;;;;;;;6.15;100.00;100465.69;5051088;28;20283;-74
2024/03/04 06:01:06;;;;;;;114.88;55.25;;;;;;;6.09;100.00;100467.94;5067833;28;20028;-75
2024/03/04 06:03:31;;;;;;;108.55;53.22;;;;;;;6.10;100.00;100472.25;5066406;28;20071;-73
2024/03/04 06:05:57;;;;;;;104.22;52.85;;;;;;;6.19;100.00;100470.59;5066469;28;20552;-74
2024/03/04 06:08:22;;;;;;;108.77;55.40;;;;;;;6.25;100.00;100463.88;5066099;28;20040;-76
2024/03/04 06:10:48;;;;;;;107.10;52.40;;;;;;;6.26;100.00;100462.91;5065808;28;20291;-73
2024/03/04 06:13:13;;;;;;;108.90;54.55;;;;;;;6.28;100.00;100469.75;5032395;28;20553;-73
2024/03/04 06:15:39;;;;;;;97.32;51.53;;;;;;;6.21;100.00;100467.81;5051141;28;20519;-73
2024/03/04 06:18:04;;;;;;;100.77;50.30;;;;;;;6.27;100.00;100477.81;5045300;28;20028;-75
2024/03/04 06:20:30;;;;;;;109.40;54.72;;;;;;;6.31;100.00;100476.56;5056415;28;20332;-75
2024/03/04 06:22:55;;;;;;;102.53;51.40;;;;;;;6.37;100.00;100483.13;5059372;28;20086;-76
2024/03/04 06:25:21;;;;;;;101.40;51.70;;;;;;;6.30;100.00;100473.09;5049521;28;20441;-74
2024/03/04 06:27:46;;;;;;;108.22;51.45;;;;;;;6.36;100.00;100486.75;5050987;28;20294;-75
2024/03/04 06:30:13;;;;;;;100.38;53.05;;;;;;;6.30;100.00;100499.59;5049994;28;20031;-73
2024/03/04 06:32:39;;;;;;;114.00;55.78;;;;;;;6.42;100.00;100507.41;5051743;28;20537;-75
2024/03/04 06:35:05;;;;;;;104.72;53.00;;;;;;;6.44;100.00;100510.72;5057798;28;20024;-75
2024/03/04 06:37:31;;;;;;;;;;;;;;;6.49;100.00;100508.53;5067073;28;20525;-74
2024/03/04 06:39:57;;;;;;;102.88;54.10;;;;;;;6.55;100.00;100510.59;5042015;28;19919;-74
2024/03/04 06:42:23;;;;;;;108.68;52.75;;;;;;;6.59;100.00;100501.38;5058766;28;20029;-73
2024/03/04 06:44:49;;;;;;;101.15;52.25;;;;;;;6.58;100.00;100496.19;5048192;28;20074;-75
2024/03/04 06:47:14;;;;;;;106.85;55.35;;;;;;;6.63;100.00;100504.59;5042548;28;20024;-73
2024/03/04 06:49:41;;;;;;;97.68;51.78;;;;;;;6.52;100.00;100494.97;5060335;28;20028;-75
2024/03/04 06:52:06;;;;;;;;;;;;;;;6.59;100.00;100497.88;5058215;28;20035;-74
2024/03/04 06:54:31;;;;;;;105.03;55.25;;;;;;;6.67;100.00;100492.69;5049937;28;19909;-74
2024/03/04 06:56:57;;;;;;;107.85;51.08;;;;;;;6.68;100.00;100497.03;5048205;28;20033;-74
2024/03/04 06:59:22;;;;;;;98.73;52.50;;;;;;;6.63;100.00;100502.78;5049482;28;20043;-73
2024/03/04 07:01:48;;;;;;;116.70;52.47;;;;;;;6.87;100.00;100509.41;5048722;28;20705;-73
2024/03/04 07:04:13;;;;;;;95.17;51.73;;;;;;;6.95;100.00;100509.50;5058479;28;20074;-75
2024/03/04 07:06:38;;;;;;;96.33;51.30;;;;;;;6.82;100.00;100488.63;5056431;28;20032;-73
2024/03/04 07:09:04;;;;;;;99.83;52.07;;;;;;;6.80;100.00;100503.00;5058160;28;20041;-73
2024/03/04 07:11:29;;;;;;;101.93;53.23;;;;;;;6.68;100.00;100500.50;5038344;28;20404;-74
2024/03/04 07:13:54;;;;;;;108.03;54.47;;;;;;;6.72;100.00;100506.38;5030361;28;20330;-74
2024/03/04 07:16:20;;;;;;;101.03;51.90;;;;;;;6.84;100.00;100531.78;5053654;28;20035;-76
2024/03/04 07:18:46;;;;;;;88.53;48.03;;;;;;;6.95;100.00;100541.34;5047073;28;20056;-74
2024/03/04 07:21:15;;;;;;;100.97;51.75;;;;;;;7.10;100.00;100569.13;5047037;28;20043;-74
2024/03/04 07:23:41;;;;;;;99.72;52.38;;;;;;;7.11;100.00;100568.13;5044759;28;20151;-75
2024/03/04 07:26:06;;;;;;;97.05;51.15;;;;;;;7.12;100.00;100558.38;5044876;28;20104;-73
2024/03/04 07:28:32;;;;;;;89.72;50.55;;;;;;;7.21;100.00;100549.53;5027306;28;20420;-73
2024/03/04 07:30:58;;;;;;;100.53;51.33;;;;;;;7.23;100.00;100546.72;5047511;28;20029;-73
2024/03/04 07:33:23;;;;;;;93.88;50.63;;;;;;;7.26;100.00;100554.38;5048073;28;20487;-74
2024/03/04 07:35:49;;;;;;;95.80;50.40;;;;;;;7.21;100.00;100533.63;5038821;28;20017;-73
2024/03/04 07:38:14;;;;;;;92.87;49.90;;;;;;;7.27;100.00;100543.63;5051147;28;20259;-73
2024/03/04 07:40:39;;;;;;;101.10;52.73;;;;;;;7.34;100.00;100551.84;5043188;28;20043;-75
2024/03/04 07:43:05;;;;;;;91.53;47.00;;;;;;;7.37;100.00;100546.25;5038511;28;20056;-77
2024/03/04 07:45:30;;;;;;;93.33;48.40;;;;;;;7.36;100.00;100539.28;5044152;28;20457;-75
2024/03/04 07:47:56;;;;;;;105.73;50.70;;;;;;;7.42;100.00;100549.28;5049951;28;20032;-76
2024/03/04 07:50:24;;;;;;;100.47;52.33;;;;;;;7.36;100.00;100555.22;5065847;28;20078;-75
2024/03/04 07:52:50;;;;;;;87.97;49.63;;;;;;;7.42;100.00;100556.44;5047776;28;20331;-76
2024/03/04 07:55:16;;;;;;;84.05;47.65;;;;;;;7.64;100.00;100573.81;5046997;28;20024;-77
2024/03/04 07:57:43;;;;;;;90.70;48.33;;;;;;;7.71;100.00;100566.94;5026925;28;20037;-73
2024/03/04 08:00:09;;;;;;;90.75;48.55;;;;;;;7.80;100.00;100568.69;5027912;28;20104;-74
2024/03/04 08:02:40;;;;;;;87.38;47.97;;;;;;;7.86;100.00;100562.75;5062224;28;20036;-75
2024/03/04 08:05:06;;;;;;;92.20;48.38;;;;;;;7.92;100.00;100566.66;5052646;28;20056;-75
2024/03/04 08:07:31;;;;;;;81.73;46.00;;;;;;;8.01;100.00;100566.59;5046274;28;20387;-73
2024/03/04 08:09:57;;;;;;;97.33;46.97;;;;;;;8.03;100.00;100559.31;5048068;28;20032;-74
2024/03/04 08:12:22;;;;;;;84.20;48.20;;;;;;;8.17;100.00;100565.06;5047541;28;20275;-74
2024/03/04 08:14:48;;;;;;;82.30;46.72;;;;;;;8.12;100.00;100548.75;5064880;28;20402;-73
2024/03/04 08:17:16;;;;;;;90.30;46.80;;;;;;;7.91;100.00;100523.28;5062039;28;20028;-73
2024/03/04 08:19:41;;;;;;;93.80;49.45;;;;;;;7.54;100.00;100518.91;5063995;28;20024;-73
2024/03/04 08:22:07;;;;;;;83.85;46.35;;;;;;;7.80;100.00;100552.75;5061122;28;20040;-73
2024/03/04 08:24:32;;;;;;;92.43;49.15;;;;;;;7.92;100.00;100556.88;5039842;28;20053;-73
2024/03/04 08:26:58;;;;;;;81.90;49.10;;;;;;;7.74;100.00;100527.59;5049526;28;20028;-73
2024/03/04 08:29:23;;;;;;;87.13;48.17;;;;;;;7.67;100.00;100529.16;5050229;28;20032;-74
2024/03/04 08:31:49;;;;;;;93.67;48.83;;;;;;;7.74;100.00;100551.50;5049023;28;20078;-74
2024/03/04 08:34:15;;;;;;;83.93;46.92;;;;;;;7.76;100.00;100556.69;5058886;28;20045;-76
2024/03/04 08:36:40;;;;;;;84.38;47.95;;;;;;;7.85;100.00;100566.41;5046817;28;20097;-75
2024/03/04 08:39:05;;;;;;;89.47;48.23;;;;;;;7.42;100.00;100522.72;5044374;28;20041;-73
2024/03/04 08:41:31;;;;;;;87.45;49.33;;;;;;;7.73;100.00;100559.66;5044188;28;20045;-74
2024/03/04 08:43:56;;;;;;;80.72;45.97;;;;;;;7.83;100.00;100557.75;5042817;28;20136;-73
2024/03/04 08:46:22;;;;;;;75.97;43.17;;;;;;;8.19;100.00;100557.78;5045261;28;20072;-74
2024/03/04 08:48:47;;;;;;;87.07;44.30;;;;;;;8.72;100.00;100570.25;5045307;28;20029;-73
2024/03/04 08:51:13;;;;;;;78.93;45.50;;;;;;;8.87;100.00;100522.59;5055737;28;20278;-76
2024/03/04 08:53:38;;;;;;;81.67;43.43;;;;;;;8.71;100.00;100470.13;5062469;28;20060;-73
2024/03/04 08:56:04;;;;;;;77.53;43.30;;;;;;;9.15;100.00;100490.47;5059678;28;20082;-73
2024/03/04 08:58:30;;;;;;;72.60;40.72;;;;;;;9.22;100.00;100454.22;5051191;28;20071;-76
2024/03/04 09:00:57;;;;;;;69.32;41.35;;;;;;;9.25;100.00;100422.78;5050129;28;20021;-74
2024/03/04 09:03:22;;;;;;;71.38;41.22;;;;;;;9.25;100.00;100385.47;5048785;28;20735;-74
2024/03/04 09:05:47;;;;;;;68.07;40.42;;;;;;;9.97;100.00;100429.38;5059496;28;20086;-73
2024/03/04 09:08:13;;;;;;;71.53;38.50;;;;;;;10.10;100.00;100345.19;5036626;28;20488;-74
2024/03/04 09:10:38;;;;;;;69.20;39.23;;;;;;;10.43;100.00;100285.63;5065663;28;20076;-73
2024/03/04 09:13:04;;;;;;;72.37;38.50;;;;;;;11.11;100.00;100292.09;5047751;28;20036;-74
2024/03/04 09:15:30;;;;;;;67.07;38.58;;;;;;;11.86;100.00;100092.56;5057120;28;20094;-76
2024/03/04 09:17:55;;;;;;;62.58;35.20;;;;;;;11.88;100.00;99986.28;5048941;28;20033;-76
2024/03/04 09:20:21;;;;;;;58.85;34.58;;;;;;;11.20;100.00;99843.00;5049716;28;20045;-74
2024/03/04 09:22:46;;;;;;;57.08;35.50;;;;;;;11.66;100.00;99889.09;5049976;28;20029;-74
2024/03/04 09:25:12;;;;;;;63.87;35.23;;;;;;;12.08;100.00;99899.00;5050263;28;20068;-74
2024/03/04 09:27:39;;;;;;;60.83;35.05;;;;;;;11.62;100.00;99710.38;5048029;28;20280;-74
2024/03/04 09:30:08;;;;;;;57.55;33.95;;;;;;;12.72;100.00;99792.75;5047611;28;20499;-74
2024/03/04 09:32:33;;;;;;;56.50;33.55;;;;;;;12.93;100.00;99521.22;5039483;28;20044;-74
2024/03/04 09:34:59;;;;;;;55.40;32.33;;;;;;;13.26;100.00;99548.78;5055990;28;20037;-74
2024/03/04 09:37:24;;;;;;;55.22;32.40;;;;;;;13.81;100.00;99437.63;5055093;28;20131;-74
2024/03/04 09:39:49;;;;;;;50.87;32.33;;;;;;;13.69;100.00;99135.25;5035580;28;20121;-77
2024/03/04 09:42:17;;;;;;;55.13;30.70;;;;;;;14.43;100.00;99296.34;5049537;28;20029;-76
2024/03/04 09:44:43;;;;;;;53.30;31.25;;;;;;;14.80;100.00;99151.31;5056754;28;20083;-74
2024/03/04 09:47:09;;;;;;;47.17;30.20;;;;;;;15.25;100.00;99051.34;5066282;28;20028;-74
2024/03/04 09:49:38;;;;;;;49.10;30.90;;;;;;;15.18;100.00;98981.56;5067812;28;20068;-76
2024/03/04 09:52:07;;;;;;;47.70;29.50;;;;;;;15.47;100.00;99000.44;5047100;28;20029;-73
2024/03/04 09:54:36;;;;;;;51.83;32.75;;;;;;;15.51;100.00;98915.56;5048798;28;20036;-74
2024/03/04 09:57:02;;;;;;;46.90;30.30;;;;;;;15.03;100.00;98653.41;5038125;28;20058;-74
2024/03/04 09:59:31;;;;;;;46.78;29.08;;;;;;;15.46;100.00;98946.94;5047324;28;20032;-74
2024/03/04 10:01:58;;;;;;;51.95;31.75;;;;;;;14.55;100.00;98533.81;5037362;28;20033;-75
2024/03/04 10:04:25;;;;;;;52.63;32.63;;;;;;;15.00;100.00;98758.66;5032522;28;20488;-76
2024/03/04 10:06:50;;;;;;;55.35;29.88;;;;;;;15.58;100.00;98850.88;5030261;28;20030;-74
2024/03/04 10:09:16;;;;;;;58.30;32.00;;;;;;;14.24;100.00;98631.75;5048543;28;20087;-75
2024/03/04 10:11:42;;;;;;;51.13;31.80;;;;;;;13.63;100.00;98704.47;5038456;28;20279;-76
2024/03/04 10:14:08;;;;;;;49.88;30.38;;;;;;;13.71;100.00;98936.59;5029189;28;20025;-75
2024/03/04 10:16:35;;;;;;;49.95;32.55;;;;;;;12.62;100.00;99017.47;5029975;28;20036;-75
2024/03/04 10:19:03;;;;;;;49.55;32.58;;;;;;;13.68;100.00;99366.13;5019863;28;20048;-74
2024/03/04 10:21:30;;;;;;;53.22;30.90;;;;;;;13.88;100.00;99329.28;5030610;28;20439;-74
2024/03/04 10:24:10;;;;;;;48.25;31.13;;;;;;;13.81;100.00;98995.88;5034024;28;20043;-73
2024/03/04 10:26:46;;;;;;;56.20;31.73;;;;;;;14.30;100.00;99121.97;5011747;28;20120;-73
2024/03/04 10:29:14;;;;;;;;;;;;;;;15.08;100.00;99258.19;5035798;28;20030;-75
2024/03/04 10:31:51;;;;;;;46.53;30.20;;;;;;;13.97;100.00;98857.59;5044882;28;19915;-75
2024/03/04 10:34:17;;;;;;;53.20;30.83;;;;;;;13.18;100.00;98907.75;5029899;28;20125;-76
2024/03/04 10:36:45;;;;;;;58.17;33.40;;;;;;;13.96;100.00;99202.06;5048023;28;20117;-75
2024/03/04 10:39:15;;;;;;;47.58;31.98;;;;;;;12.99;100.00;98933.72;5033617;28;20033;-74
2024/03/04 10:41:43;;;;;;;48.63;31.70;;;;;;;13.18;100.00;99203.34;5030143;28;20159;-75
2024/03/04 10:44:09;;;;;;;46.20;31.15;;;;;;;13.05;100.00;99023.91;5038243;28;20025;-74
2024/03/04 10:46:37;;;;;;;59.42;34.28;;;;;;;12.38;100.00;99063.75;5046513;28;20090;-72
2024/03/04 10:49:03;;;;;;;51.85;31.88;;;;;;;13.49;100.00;99660.97;5026757;28;20033;-74
2024/03/04 10:51:28;;;;;;;53.53;32.80;;;;;;;12.94;100.00;99426.44;5028617;28;20033;-74
2024/03/04 10:53:54;;;;;;;50.37;32.63;;;;;;;13.39;100.00;99379.09;5033518;28;20033;-75
2024/03/04 10:56:21;;;;;;;45.20;26.80;;;;;;;14.72;100.00;99619.03;5043643;28;20086;-73
2024/03/04 10:58:50;;;;;;;54.10;32.22;;;;;;;15.44;100.00;99193.75;5028364;28;20045;-74
2024/03/04 11:01:20;;;;;;;51.00;32.03;;;;;;;13.59;100.00;98619.38;5028179;28;20033;-75